Aeroboteco Virtual Airlines! Uma nuvem a frente.



 INFORMAÇÕES METEOROLÓGICAS
METAR FOR LPFR
ADDS - METARS form results

(1455 UTC 22 March 2019)
Data provider http://aviationweather.gov/metar/data/
 
METAR text: LPFR 221430Z 10015KT 9999 FEW035 19/05 Q1022
Conditions at: LPFR (FARO , PT) observed 1430 UTC 22 March 2019
Temperature: 19.0°C (66°F)
Dewpoint: 5.0°C (41°F) [RH = 40%]
Pressure (altimeter): 30.18 inches Hg (1022.0 mb)
Winds: from the E (100 degrees) at 17 MPH (15 knots; 7.7 m/s)
Visibility: 6 or more miles (10+ km)
Ceiling: at least 12,000 feet AGL
Clouds: few clouds at 3500 feet AGL
Weather: no significant weather observed at this time

METAR text: LPFR 221400Z 10015KT 9999 FEW035 19/05 Q1022
Conditions at: LPFR (FARO , PT) observed 1400 UTC 22 March 2019
Temperature: 19.0°C (66°F)
Dewpoint: 5.0°C (41°F) [RH = 40%]
Pressure (altimeter): 30.18 inches Hg (1022.0 mb)
Winds: from the E (100 degrees) at 17 MPH (15 knots; 7.7 m/s)
Visibility: 6 or more miles (10+ km)
Ceiling: at least 12,000 feet AGL
Clouds: few clouds at 3500 feet AGL
Weather: no significant weather observed at this time

Forecast for: LPFR (FARO , PT)
Text: TAF LPFR 221100Z 2212/2312 09012KT CAVOK
Forecast period: 1200 to 1900 UTC 22 March 2019
Forecast type: FROM: standard forecast or significant change
Winds: from the E (90 degrees) at 14 MPH (12 knots; 6.2 m/s)
Visibility: 6 or more miles 10+ km)
Ceiling: unknown
Clouds: missing
Weather: NSW  (no significant weather)
Text: BECMG 2219/2221 06008KT
Forecast period: 1900 UTC 22 March 2019 to 0300 UTC 23 March 2019
Forecast type: BECOMING: Conditions expected to become as follows by 2100 UTC 22 March 2019
Winds: from the ENE (60 degrees) at 9 MPH (8 knots; 4.1 m/s)
Visibility: 6 or more miles 10+ km)
Ceiling: unknown
Clouds: missing
Weather: NSW  (no significant weather)
Text: BECMG 2303/2305 06015KT
Forecast period: 0300 to 1200 UTC 23 March 2019
Forecast type: BECOMING: Conditions expected to become as follows by 0500 UTC 23 March 2019
Winds: from the ENE (60 degrees) at 17 MPH (15 knots; 7.7 m/s)
Visibility: 6 or more miles 10+ km)
Ceiling: unknown
Clouds: missing
Weather: NSW  (no significant weather)

 MAPA DO AEROPORTO

 INFORMAÇÕES DA PISTA
Pista 10 Tamanho da pista 8169 ft Largura da pista 148 ft
Elevação da pista 24 ft Ranhura da pista 148 ft Proa da pista 100
Pista 28 Tamanho da pista 8169 ft Largura da pista 148 ft
Elevação da pista 18 ft Ranhura da pista 148 ft Proa da pista 280

 FREQUÊNCIAS DO AEROPORTO
Tipo APP Nome APP Frequência 119.4 MHZ
Tipo ATIS Nome ATIS Frequência 124.2 MHZ
Tipo GND Nome GND Frequência 118.575 MHZ
Tipo TWR Nome TWR Frequência 118.2 MHZ

 AUXÍLIOS DE NAVEGAÇÃO PRÓXIMOS AO AEROPORTO
Tipo NDB Nome Faro Frequência 332 KHZ
Tipo VOR-DME Nome Faro Frequência 112800 KHZ